Home   Weather   USA   Duncan   Past weeks
Flag for USA

Past Weather in Duncan, Oklahoma, USA — Yesterday and Last 2 Weeks

Currently: 87 °F. Scattered clouds. (Weather station: Halliburton Field Airport, USA). See more current weather

Past Weather in Duncan — Graph

°F

Duncan Temperature Yesterday

Maximum temperature yesterday: 81 °F (at 5:15 pm)
Minimum temperature yesterday: 67 °F (at 5:55 am)
Average temperature yesterday: 74 °F

High & Low Weather Summary for the Past Weeks

 TemperatureHumidityPressure
High96 °F (Jun 8, 4:55 pm)100% (May 30, 4:55 am)30.23 "Hg (May 30, 4:55 am)
Low64 °F (May 29, 6:55 am)32% (Jun 6, 3:55 pm)29.56 "Hg (Jun 4, 4:15 pm)
Average76 °F74%29.91 "Hg
* Reported May 28 12:15 pm — Jun 12 12:55 pm, Duncan. Weather by CustomWeather, © 2024

Note: Actual official high and low records may vary slightly from our data, if they occured in-between our weather recording intervals... More about our weather records

Duncan Weather History for the Previous 24 Hours

Scroll right to see more
 ConditionsComfort  
Time TempWeatherWind HumidityBarometerVisibility
12:55 pm
Wed, Jun 12
85 °FScattered clouds.8 mph60%30.03 "Hg7 mi
12:15 pm84 °FSunny.7 mph60%30.04 "Hg10 mi
11:35 am82 °FDense fog.7 mph61%30.04 "Hg0 mi
10:55 am80 °FDense fog.5 mph62%30.05 "Hg0 mi
10:35 am80 °FDense fog.3 mph64%30.05 "Hg0 mi
10:15 am78 °FDense fog.3 mph63%30.05 "Hg0 mi
9:55 am78 °FDense fog.5 mph65%30.05 "Hg0 mi
9:35 am77 °FDense fog.8 mph65%30.06 "Hg0 mi
9:15 am76 °FDense fog.6 mph69%30.06 "Hg0 mi
8:35 am73 °FDense fog.5 mph76%30.05 "Hg0 mi
8:15 am72 °FDense fog.No wind77%30.05 "Hg0 mi
7:55 am72 °FDense fog.No wind80%30.05 "Hg0 mi
7:35 am70 °FFog.No wind86%30.04 "Hg0 mi
6:15 am67 °FFog.No wind91%30.02 "Hg0 mi
5:55 am67 °FFog.No wind91%30.02 "Hg2 mi
5:35 am67 °FFog.3 mph92%30.01 "Hg1 mi
5:15 am67 °FFog.No wind94%30.01 "Hg4 mi
4:55 am67 °FFog.5 mph95%30.00 "Hg1 mi
4:35 am67 °FFog.6 mph94%30.00 "Hg1 mi
4:15 am67 °FFog.6 mph96%30.00 "Hg1 mi
3:55 am68 °FFog.7 mph96%29.99 "Hg5 mi
3:15 am69 °FFog.6 mph97%30.00 "Hg4 mi
2:35 am69 °FFog.3 mph98%30.01 "Hg1 mi
2:15 am69 °FFog.5 mph97%30.01 "Hg4 mi
1:55 am69 °FFog.6 mph99%30.01 "Hg2 mi
1:35 am69 °FPassing clouds.6 mph95%30.02 "Hg10 mi
1:15 am71 °FFog.No wind92%30.02 "Hg0 mi
12:55 am69 °FFog.No wind94%30.02 "Hg1 mi
12:35 am71 °FFog.No wind91%30.02 "Hg1 mi
12:15 am70 °FFog.3 mph93%30.02 "Hg1 mi
11:55 pm
Tue, Jun 11
70 °FFog.3 mph93%30.01 "Hg2 mi
11:35 pm71 °FFog.5 mph91%30.01 "Hg5 mi
10:55 pm72 °FFog.No wind84%30.01 "Hg3 mi
10:35 pm73 °FClear.No wind83%30.00 "Hg10 mi
9:55 pm73 °FClear.5 mph82%29.98 "Hg10 mi
9:15 pm74 °FDense fog.No wind79%29.96 "Hg0 mi
8:55 pm75 °FClear.No wind77%29.95 "Hg10 mi
8:15 pm77 °FSunny.8 mph72%29.94 "Hg10 mi
7:35 pm79 °FSunny.9 mph70%29.93 "Hg10 mi
6:55 pm79 °FPartly sunny.10 mph68%29.94 "Hg10 mi
6:35 pm80 °FPartly sunny.9 mph66%29.95 "Hg10 mi
6:15 pm80 °FSunny.9 mph65%29.95 "Hg10 mi
5:35 pm80 °FSunny.10 mph67%29.95 "Hg10 mi
5:15 pm81 °FSunny.12 mph65%29.95 "Hg10 mi
4:55 pm80 °FSunny.13 mph67%29.96 "Hg10 mi
4:35 pm80 °FScattered clouds.12 mph68%29.96 "Hg10 mi
4:15 pm80 °FBroken clouds.14 mph69%29.97 "Hg10 mi
3:55 pm79 °FCloudy.8 mph71%29.97 "Hg10 mi
3:35 pm79 °FMostly cloudy.10 mph70%29.98 "Hg10 mi
2:35 pm79 °FMostly cloudy.9 mph68%29.99 "Hg10 mi
2:15 pm80 °FOvercast.8 mph67%29.99 "Hg4 mi
Weather by CustomWeather, © 2024

See weather overview